createdAt,value
2023-01-19T00:07:23.141Z,74.11
2023-01-19T00:17:25.621Z,74.04
2023-01-19T00:27:30.493Z,73.58
2023-01-19T00:37:32.926Z,73.94
2023-01-19T00:47:36.847Z,73.80
2023-01-19T00:57:39.587Z,73.54
2023-01-19T01:07:45.100Z,73.97
2023-01-19T01:17:48.144Z,73.75
2023-01-19T01:27:52.397Z,73.89
2023-01-19T01:37:58.615Z,73.76
2023-01-19T01:48:05.061Z,73.20
2023-01-19T01:58:09.662Z,73.39
2023-01-19T02:08:34.028Z,73.40
2023-01-19T02:18:37.185Z,73.54
2023-01-19T02:28:43.608Z,73.28
2023-01-19T02:38:46.774Z,72.80
2023-01-19T02:48:50.603Z,73.04
2023-01-19T02:58:58.102Z,73.19
2023-01-19T03:09:03.644Z,72.87
2023-01-19T03:19:09.191Z,72.63
2023-01-19T03:29:13.847Z,72.96
2023-01-19T03:39:19.891Z,72.45
2023-01-19T03:49:23.858Z,72.32
2023-01-19T03:59:26.349Z,73.00
2023-01-19T04:09:30.234Z,72.40
2023-01-19T04:19:32.728Z,72.38
2023-01-19T04:29:36.510Z,72.63
2023-01-19T04:39:38.928Z,72.32
2023-01-19T04:49:42.705Z,72.62
2023-01-19T04:59:45.334Z,71.50
2023-01-19T05:09:49.119Z,72.11
2023-01-19T05:19:51.599Z,71.83
2023-01-19T05:29:55.407Z,71.11
2023-01-19T05:39:57.833Z,71.19
2023-01-19T05:50:01.655Z,71.63
2023-01-19T06:00:04.455Z,71.10
2023-01-19T06:10:09.317Z,71.43
2023-01-19T06:20:14.308Z,71.34
2023-01-19T06:30:18.515Z,71.09
2023-01-19T06:40:21.061Z,70.68
2023-01-19T06:50:24.929Z,71.37
2023-01-19T07:00:27.623Z,70.74
2023-01-19T07:11:25.347Z,70.79
2023-01-19T07:20:54.168Z,70.89
2023-01-19T07:30:58.487Z,71.13
2023-01-19T07:41:01.269Z,70.50
2023-01-19T07:51:09.878Z,70.75
2023-01-19T08:01:14.731Z,69.91
2023-01-19T08:11:18.614Z,70.08
2023-01-19T08:21:21.383Z,69.40
2023-01-19T08:31:25.610Z,69.30
2023-01-19T08:41:28.130Z,68.52
2023-01-19T08:51:32.032Z,68.19
2023-01-19T09:01:34.542Z,67.48
2023-01-19T09:11:38.384Z,66.88
2023-01-19T09:21:40.977Z,66.38
2023-01-19T09:31:45.585Z,65.94
2023-01-19T09:41:50.050Z,65.59
2023-01-19T09:51:53.942Z,64.45
2023-01-19T10:02:03.702Z,64.59
2023-01-19T10:12:11.935Z,65.12
2023-01-19T10:22:20.470Z,64.50
2023-01-19T10:32:25.731Z,64.02
2023-01-19T10:42:30.101Z,63.93
2023-01-19T10:52:35.506Z,63.88
2023-01-19T11:02:38.017Z,63.68
2023-01-19T11:12:43.577Z,63.97
2023-01-19T11:22:48.571Z,63.79
2023-01-19T11:32:52.735Z,63.79
2023-01-19T11:42:55.222Z,64.76
2023-01-19T11:53:01.247Z,59.38
2023-01-19T12:03:05.528Z,58.95
2023-01-19T12:13:14.104Z,59.94
2023-01-19T12:23:23.798Z,61.09
2023-01-19T12:33:37.911Z,63.33
2023-01-19T12:43:40.449Z,63.88
2023-01-19T12:53:51.636Z,63.74
2023-01-19T13:04:01.843Z,63.52
2023-01-19T13:14:25.349Z,64.49
2023-01-19T13:24:49.091Z,65.43
2023-01-19T13:34:53.936Z,65.96
2023-01-19T13:44:59.828Z,67.01
2023-01-19T13:55:03.910Z,67.18
2023-01-19T14:05:21.867Z,67.54
2023-01-19T14:15:24.411Z,67.53
2023-01-19T14:25:32.130Z,68.02
2023-01-19T14:35:35.246Z,68.25
2023-01-19T14:45:41.356Z,68.38
2023-01-19T14:55:46.724Z,68.36
2023-01-19T15:05:50.895Z,67.71
2023-01-19T15:15:53.975Z,67.38
2023-01-19T15:26:01.334Z,67.27
2023-01-19T15:36:05.342Z,57.19
2023-01-19T15:46:11.798Z,59.24
2023-01-19T15:56:15.121Z,64.89
2023-01-19T16:06:18.958Z,66.17
2023-01-19T16:16:22.393Z,67.15
2023-01-19T16:26:27.849Z,67.51
2023-01-19T16:36:31.179Z,67.88
2023-01-19T16:46:36.475Z,68.94
2023-01-19T16:56:39.112Z,69.11
2023-01-19T17:06:42.876Z,68.86
2023-01-19T17:16:45.366Z,69.21
2023-01-19T17:27:05.044Z,70.35
2023-01-19T17:37:07.525Z,69.76
2023-01-19T17:47:11.392Z,70.03
2023-01-19T17:57:13.855Z,70.29
2023-01-19T18:07:17.784Z,70.10
2023-01-19T18:17:20.743Z,70.12
2023-01-19T18:27:24.501Z,69.75
2023-01-19T18:37:26.947Z,69.62
2023-01-19T18:47:30.856Z,69.82
2023-01-19T18:57:34.841Z,70.19
2023-01-19T19:07:38.673Z,69.95
2023-01-19T19:17:41.191Z,70.35
2023-01-19T19:27:45.491Z,70.57
2023-01-19T19:37:48.335Z,71.36
2023-01-19T19:47:52.176Z,71.17
2023-01-19T19:57:55.136Z,71.68
2023-01-19T20:07:59.053Z,72.17
2023-01-19T20:18:01.540Z,71.64
2023-01-19T20:28:05.576Z,72.37
2023-01-19T20:38:08.566Z,73.29
2023-01-19T20:48:12.390Z,74.10
2023-01-19T20:58:14.823Z,74.47
2023-01-19T21:08:18.722Z,74.72
2023-01-19T21:18:21.320Z,75.95
2023-01-19T21:28:25.809Z,75.79
2023-01-19T21:38:29.164Z,75.57
2023-01-19T21:48:33.446Z,75.16
2023-01-19T21:58:35.996Z,74.82
2023-01-19T22:08:40.241Z,74.34
2023-01-19T22:18:43.780Z,75.23
2023-01-19T22:28:47.582Z,76.27
2023-01-19T22:38:51.446Z,76.15
2023-01-19T22:48:55.674Z,75.63
2023-01-19T22:58:58.899Z,74.43
2023-01-19T23:09:04.681Z,75.11
2023-01-19T23:19:07.529Z,75.10
2023-01-19T23:29:12.996Z,75.50
2023-01-19T23:39:16.805Z,75.68
2023-01-19T23:49:20.612Z,75.90
2023-01-19T23:59:23.052Z,76.27
